sensor_id;sensor_type;location;lat;lon;timestamp;P1;durP1;ratioP1;P2;durP2;ratioP2
77984;SDS011;67177;47.240;-1.546;2023-09-30T00:01:54;6.18;;;2.10;;
77984;SDS011;67177;47.240;-1.546;2023-09-30T00:04:20;6.20;;;1.90;;
77984;SDS011;67177;47.240;-1.546;2023-09-30T00:06:46;5.47;;;1.57;;
77984;SDS011;67177;47.240;-1.546;2023-09-30T00:09:11;5.40;;;1.70;;
77984;SDS011;67177;47.240;-1.546;2023-09-30T00:11:38;4.80;;;1.40;;
77984;SDS011;67177;47.240;-1.546;2023-09-30T00:14:04;5.55;;;1.60;;
77984;SDS011;67177;47.240;-1.546;2023-09-30T00:16:30;4.93;;;1.38;;
77984;SDS011;67177;47.240;-1.546;2023-09-30T00:18:56;4.97;;;1.50;;
77984;SDS011;67177;47.240;-1.546;2023-09-30T00:21:23;5.20;;;1.60;;
77984;SDS011;67177;47.240;-1.546;2023-09-30T00:23:49;5.03;;;1.55;;
77984;SDS011;67177;47.240;-1.546;2023-09-30T00:26:15;5.37;;;1.60;;
77984;SDS011;67177;47.240;-1.546;2023-09-30T00:28:41;5.47;;;1.50;;
77984;SDS011;67177;47.240;-1.546;2023-09-30T00:31:07;4.70;;;1.30;;
77984;SDS011;67177;47.240;-1.546;2023-09-30T00:33:35;4.43;;;1.23;;
77984;SDS011;67177;47.240;-1.546;2023-09-30T00:36:08;3.95;;;1.08;;
77984;SDS011;67177;47.240;-1.546;2023-09-30T00:38:35;4.88;;;1.40;;
77984;SDS011;67177;47.240;-1.546;2023-09-30T00:41:01;4.00;;;0.80;;
77984;SDS011;67177;47.240;-1.546;2023-09-30T00:43:27;3.83;;;1.00;;
77984;SDS011;67177;47.240;-1.546;2023-09-30T00:45:54;4.05;;;1.02;;
77984;SDS011;67177;47.240;-1.546;2023-09-30T00:48:30;3.22;;;0.85;;
77984;SDS011;67177;47.240;-1.546;2023-09-30T00:50:57;4.80;;;1.10;;
77984;SDS011;67177;47.240;-1.546;2023-09-30T00:53:23;4.07;;;1.00;;
77984;SDS011;67177;47.240;-1.546;2023-09-30T00:55:48;4.73;;;1.20;;
77984;SDS011;67177;47.240;-1.546;2023-09-30T00:58:16;5.50;;;1.38;;
77984;SDS011;67177;47.240;-1.546;2023-09-30T01:00:42;4.25;;;1.40;;
77984;SDS011;67177;47.240;-1.546;2023-09-30T01:03:08;5.07;;;1.50;;
77984;SDS011;67177;47.240;-1.546;2023-09-30T01:05:34;4.28;;;1.30;;
77984;SDS011;67177;47.240;-1.546;2023-09-30T01:08:01;4.72;;;1.50;;
77984;SDS011;67177;47.240;-1.546;2023-09-30T01:10:28;5.32;;;1.65;;
77984;SDS011;67177;47.240;-1.546;2023-09-30T01:12:53;5.20;;;1.30;;
77984;SDS011;67177;47.240;-1.546;2023-09-30T01:15:19;4.53;;;1.30;;
77984;SDS011;67177;47.240;-1.546;2023-09-30T01:17:45;4.90;;;1.27;;
77984;SDS011;67177;47.240;-1.546;2023-09-30T01:20:11;3.50;;;0.90;;
77984;SDS011;67177;47.240;-1.546;2023-09-30T01:22:41;4.15;;;1.00;;
77984;SDS011;67177;47.240;-1.546;2023-09-30T01:25:09;4.25;;;1.20;;
77984;SDS011;67177;47.240;-1.546;2023-09-30T01:27:36;3.80;;;1.00;;
77984;SDS011;67177;47.240;-1.546;2023-09-30T01:30:02;4.70;;;1.20;;
77984;SDS011;67177;47.240;-1.546;2023-09-30T01:32:28;4.15;;;1.02;;
77984;SDS011;67177;47.240;-1.546;2023-09-30T01:34:53;3.50;;;0.97;;
77984;SDS011;67177;47.240;-1.546;2023-09-30T01:37:19;4.95;;;1.10;;
77984;SDS011;67177;47.240;-1.546;2023-09-30T01:39:45;4.47;;;1.10;;
77984;SDS011;67177;47.240;-1.546;2023-09-30T01:42:10;3.67;;;1.00;;
77984;SDS011;67177;47.240;-1.546;2023-09-30T01:44:36;4.57;;;1.10;;
77984;SDS011;67177;47.240;-1.546;2023-09-30T01:47:02;4.38;;;1.00;;
77984;SDS011;67177;47.240;-1.546;2023-09-30T01:49:27;3.87;;;1.03;;
77984;SDS011;67177;47.240;-1.546;2023-09-30T01:51:53;4.20;;;1.00;;
77984;SDS011;67177;47.240;-1.546;2023-09-30T01:54:19;3.87;;;0.90;;
77984;SDS011;67177;47.240;-1.546;2023-09-30T01:56:45;3.33;;;0.85;;
77984;SDS011;67177;47.240;-1.546;2023-09-30T01:59:10;3.00;;;0.67;;
77984;SDS011;67177;47.240;-1.546;2023-09-30T02:01:36;3.58;;;0.90;;
77984;SDS011;67177;47.240;-1.546;2023-09-30T02:04:02;3.28;;;0.80;;
77984;SDS011;67177;47.240;-1.546;2023-09-30T02:06:28;3.20;;;0.73;;
77984;SDS011;67177;47.240;-1.546;2023-09-30T02:08:53;3.33;;;0.85;;
77984;SDS011;67177;47.240;-1.546;2023-09-30T02:11:19;4.37;;;1.10;;
77984;SDS011;67177;47.240;-1.546;2023-09-30T02:13:44;3.90;;;1.00;;
77984;SDS011;67177;47.240;-1.546;2023-09-30T02:16:13;4.23;;;1.10;;
77984;SDS011;67177;47.240;-1.546;2023-09-30T02:18:39;4.40;;;1.10;;
77984;SDS011;67177;47.240;-1.546;2023-09-30T02:21:07;3.75;;;0.98;;
77984;SDS011;67177;47.240;-1.546;2023-09-30T02:23:34;3.90;;;1.07;;
77984;SDS011;67177;47.240;-1.546;2023-09-30T02:26:00;5.15;;;1.05;;
77984;SDS011;67177;47.240;-1.546;2023-09-30T02:28:27;4.35;;;1.08;;
77984;SDS011;67177;47.240;-1.546;2023-09-30T02:30:54;4.55;;;1.20;;
77984;SDS011;67177;47.240;-1.546;2023-09-30T02:33:20;3.53;;;1.03;;
77984;SDS011;67177;47.240;-1.546;2023-09-30T02:35:45;4.15;;;1.00;;
77984;SDS011;67177;47.240;-1.546;2023-09-30T02:38:12;5.03;;;1.27;;
77984;SDS011;67177;47.240;-1.546;2023-09-30T02:40:38;3.08;;;0.80;;
77984;SDS011;67177;47.240;-1.546;2023-09-30T02:43:05;3.85;;;0.98;;
77984;SDS011;67177;47.240;-1.546;2023-09-30T02:45:31;3.03;;;0.80;;
77984;SDS011;67177;47.240;-1.546;2023-09-30T02:47:56;3.65;;;0.90;;
77984;SDS011;67177;47.240;-1.546;2023-09-30T02:50:22;2.97;;;0.80;;
77984;SDS011;67177;47.240;-1.546;2023-09-30T02:52:47;3.58;;;0.80;;
77984;SDS011;67177;47.240;-1.546;2023-09-30T02:55:14;3.43;;;0.80;;
77984;SDS011;67177;47.240;-1.546;2023-09-30T02:57:40;3.00;;;0.77;;
77984;SDS011;67177;47.240;-1.546;2023-09-30T03:00:06;2.60;;;0.60;;
77984;SDS011;67177;47.240;-1.546;2023-09-30T03:02:45;3.42;;;0.70;;
77984;SDS011;67177;47.240;-1.546;2023-09-30T03:05:11;3.05;;;0.70;;
77984;SDS011;67177;47.240;-1.546;2023-09-30T03:07:38;4.20;;;0.90;;
77984;SDS011;67177;47.240;-1.546;2023-09-30T03:10:04;3.28;;;0.73;;
77984;SDS011;67177;47.240;-1.546;2023-09-30T03:12:30;3.92;;;0.90;;
77984;SDS011;67177;47.240;-1.546;2023-09-30T03:14:56;4.57;;;1.10;;
77984;SDS011;67177;47.240;-1.546;2023-09-30T03:17:23;4.75;;;1.00;;
77984;SDS011;67177;47.240;-1.546;2023-09-30T03:19:50;3.58;;;0.82;;
77984;SDS011;67177;47.240;-1.546;2023-09-30T03:22:16;3.53;;;1.00;;
77984;SDS011;67177;47.240;-1.546;2023-09-30T03:24:42;3.50;;;0.90;;
77984;SDS011;67177;47.240;-1.546;2023-09-30T03:27:07;3.40;;;0.83;;
77984;SDS011;67177;47.240;-1.546;2023-09-30T03:29:35;3.67;;;1.00;;
77984;SDS011;67177;47.240;-1.546;2023-09-30T03:32:03;4.40;;;1.17;;
77984;SDS011;67177;47.240;-1.546;2023-09-30T03:34:28;3.65;;;1.00;;
77984;SDS011;67177;47.240;-1.546;2023-09-30T03:36:55;4.40;;;1.00;;
77984;SDS011;67177;47.240;-1.546;2023-09-30T03:39:23;3.83;;;1.00;;
77984;SDS011;67177;47.240;-1.546;2023-09-30T03:41:53;4.10;;;0.85;;
77984;SDS011;67177;47.240;-1.546;2023-09-30T03:44:19;4.10;;;1.10;;
77984;SDS011;67177;47.240;-1.546;2023-09-30T03:46:45;2.95;;;0.80;;
77984;SDS011;67177;47.240;-1.546;2023-09-30T03:49:11;3.35;;;0.88;;
77984;SDS011;67177;47.240;-1.546;2023-09-30T03:51:37;3.50;;;0.80;;
77984;SDS011;67177;47.240;-1.546;2023-09-30T03:54:02;3.33;;;0.80;;
77984;SDS011;67177;47.240;-1.546;2023-09-30T03:56:28;3.37;;;0.70;;
77984;SDS011;67177;47.240;-1.546;2023-09-30T03:58:54;2.95;;;0.90;;
77984;SDS011;67177;47.240;-1.546;2023-09-30T04:01:19;4.10;;;1.00;;
77984;SDS011;67177;47.240;-1.546;2023-09-30T04:03:45;5.73;;;1.43;;
77984;SDS011;67177;47.240;-1.546;2023-09-30T04:06:11;5.60;;;1.40;;
77984;SDS011;67177;47.240;-1.546;2023-09-30T04:08:37;7.05;;;2.22;;
77984;SDS011;67177;47.240;-1.546;2023-09-30T04:11:03;6.77;;;1.80;;
77984;SDS011;67177;47.240;-1.546;2023-09-30T04:13:29;6.03;;;1.80;;
77984;SDS011;67177;47.240;-1.546;2023-09-30T04:15:55;5.93;;;1.53;;
77984;SDS011;67177;47.240;-1.546;2023-09-30T04:18:23;6.20;;;1.63;;
77984;SDS011;67177;47.240;-1.546;2023-09-30T04:20:51;5.15;;;1.30;;
77984;SDS011;67177;47.240;-1.546;2023-09-30T04:23:17;4.68;;;1.27;;
77984;SDS011;67177;47.240;-1.546;2023-09-30T04:25:45;4.93;;;1.40;;
77984;SDS011;67177;47.240;-1.546;2023-09-30T04:28:11;4.67;;;1.20;;
77984;SDS011;67177;47.240;-1.546;2023-09-30T04:30:38;3.55;;;0.98;;
77984;SDS011;67177;47.240;-1.546;2023-09-30T04:33:04;3.60;;;1.08;;
77984;SDS011;67177;47.240;-1.546;2023-09-30T04:35:30;4.13;;;1.00;;
77984;SDS011;67177;47.240;-1.546;2023-09-30T04:37:56;3.20;;;0.90;;
77984;SDS011;67177;47.240;-1.546;2023-09-30T04:40:29;3.80;;;1.17;;
77984;SDS011;67177;47.240;-1.546;2023-09-30T04:42:55;3.80;;;1.10;;
77984;SDS011;67177;47.240;-1.546;2023-09-30T04:45:26;5.63;;;1.40;;
77984;SDS011;67177;47.240;-1.546;2023-09-30T04:47:52;4.17;;;1.03;;
77984;SDS011;67177;47.240;-1.546;2023-09-30T04:50:21;4.55;;;1.10;;
77984;SDS011;67177;47.240;-1.546;2023-09-30T04:52:47;4.50;;;1.20;;
77984;SDS011;67177;47.240;-1.546;2023-09-30T04:55:16;3.45;;;1.00;;
77984;SDS011;67177;47.240;-1.546;2023-09-30T04:57:44;3.45;;;0.90;;
77984;SDS011;67177;47.240;-1.546;2023-09-30T05:00:14;4.83;;;1.13;;
77984;SDS011;67177;47.240;-1.546;2023-09-30T05:02:42;4.57;;;1.20;;
77984;SDS011;67177;47.240;-1.546;2023-09-30T05:05:10;4.82;;;1.10;;
77984;SDS011;67177;47.240;-1.546;2023-09-30T05:07:36;3.10;;;0.82;;
77984;SDS011;67177;47.240;-1.546;2023-09-30T05:10:02;3.65;;;0.90;;
77984;SDS011;67177;47.240;-1.546;2023-09-30T05:12:35;4.50;;;1.10;;
77984;SDS011;67177;47.240;-1.546;2023-09-30T05:15:01;3.95;;;1.00;;
77984;SDS011;67177;47.240;-1.546;2023-09-30T05:17:27;4.28;;;1.10;;
77984;SDS011;67177;47.240;-1.546;2023-09-30T05:19:54;3.53;;;0.90;;
77984;SDS011;67177;47.240;-1.546;2023-09-30T05:22:21;4.50;;;1.00;;
77984;SDS011;67177;47.240;-1.546;2023-09-30T05:24:50;3.03;;;0.75;;
77984;SDS011;67177;47.240;-1.546;2023-09-30T05:27:17;3.60;;;0.90;;
77984;SDS011;67177;47.240;-1.546;2023-09-30T05:29:43;4.57;;;1.20;;
77984;SDS011;67177;47.240;-1.546;2023-09-30T05:32:09;4.37;;;1.20;;
77984;SDS011;67177;47.240;-1.546;2023-09-30T05:34:34;4.88;;;1.00;;
77984;SDS011;67177;47.240;-1.546;2023-09-30T05:37:00;3.93;;;1.07;;
77984;SDS011;67177;47.240;-1.546;2023-09-30T05:39:26;3.80;;;0.90;;
77984;SDS011;67177;47.240;-1.546;2023-09-30T05:41:53;4.15;;;0.88;;
77984;SDS011;67177;47.240;-1.546;2023-09-30T05:44:20;3.83;;;0.90;;
77984;SDS011;67177;47.240;-1.546;2023-09-30T05:46:47;3.85;;;0.90;;
77984;SDS011;67177;47.240;-1.546;2023-09-30T05:49:12;3.35;;;0.70;;
77984;SDS011;67177;47.240;-1.546;2023-09-30T05:51:39;4.30;;;1.17;;
77984;SDS011;67177;47.240;-1.546;2023-09-30T05:54:06;3.75;;;1.05;;
77984;SDS011;67177;47.240;-1.546;2023-09-30T05:56:33;3.17;;;0.90;;
77984;SDS011;67177;47.240;-1.546;2023-09-30T05:58:59;3.97;;;1.10;;
77984;SDS011;67177;47.240;-1.546;2023-09-30T06:01:24;3.08;;;0.70;;
77984;SDS011;67177;47.240;-1.546;2023-09-30T06:03:50;3.60;;;0.90;;
77984;SDS011;67177;47.240;-1.546;2023-09-30T06:06:16;3.25;;;0.85;;
77984;SDS011;67177;47.240;-1.546;2023-09-30T06:08:42;4.07;;;0.80;;
77984;SDS011;67177;47.240;-1.546;2023-09-30T06:11:22;3.40;;;0.70;;
77984;SDS011;67177;47.240;-1.546;2023-09-30T06:13:56;3.40;;;0.70;;
77984;SDS011;67177;47.240;-1.546;2023-09-30T06:16:26;4.72;;;0.93;;
77984;SDS011;67177;47.240;-1.546;2023-09-30T06:18:52;3.03;;;0.70;;
77984;SDS011;67177;47.240;-1.546;2023-09-30T06:21:19;3.70;;;0.90;;
77984;SDS011;67177;47.240;-1.546;2023-09-30T06:23:49;4.20;;;0.90;;
77984;SDS011;67177;47.240;-1.546;2023-09-30T06:26:18;5.07;;;1.40;;
77984;SDS011;67177;47.240;-1.546;2023-09-30T06:28:45;5.05;;;1.13;;
77984;SDS011;67177;47.240;-1.546;2023-09-30T06:31:12;4.60;;;1.20;;
77984;SDS011;67177;47.240;-1.546;2023-09-30T06:33:38;4.63;;;1.20;;
77984;SDS011;67177;47.240;-1.546;2023-09-30T06:36:11;3.58;;;1.00;;
77984;SDS011;67177;47.240;-1.546;2023-09-30T06:38:40;3.95;;;1.10;;
77984;SDS011;67177;47.240;-1.546;2023-09-30T06:41:15;4.23;;;1.20;;
77984;SDS011;67177;47.240;-1.546;2023-09-30T06:43:43;4.00;;;1.00;;
77984;SDS011;67177;47.240;-1.546;2023-09-30T06:46:09;5.45;;;1.20;;
77984;SDS011;67177;47.240;-1.546;2023-09-30T06:48:36;5.30;;;1.27;;
77984;SDS011;67177;47.240;-1.546;2023-09-30T06:51:02;4.27;;;1.20;;
77984;SDS011;67177;47.240;-1.546;2023-09-30T06:53:28;4.18;;;1.33;;
77984;SDS011;67177;47.240;-1.546;2023-09-30T06:55:53;4.97;;;1.23;;
77984;SDS011;67177;47.240;-1.546;2023-09-30T06:58:20;4.77;;;1.13;;
77984;SDS011;67177;47.240;-1.546;2023-09-30T07:00:49;4.88;;;1.30;;
77984;SDS011;67177;47.240;-1.546;2023-09-30T07:03:16;3.80;;;0.80;;
77984;SDS011;67177;47.240;-1.546;2023-09-30T07:05:44;3.35;;;0.88;;
77984;SDS011;67177;47.240;-1.546;2023-09-30T07:08:10;3.97;;;1.07;;
77984;SDS011;67177;47.240;-1.546;2023-09-30T07:10:36;3.67;;;0.95;;
77984;SDS011;67177;47.240;-1.546;2023-09-30T07:13:02;3.78;;;1.00;;
77984;SDS011;67177;47.240;-1.546;2023-09-30T07:15:28;3.58;;;0.90;;
77984;SDS011;67177;47.240;-1.546;2023-09-30T07:17:54;3.47;;;0.90;;
77984;SDS011;67177;47.240;-1.546;2023-09-30T07:20:20;4.37;;;1.20;;
77984;SDS011;67177;47.240;-1.546;2023-09-30T07:22:47;3.40;;;0.90;;
77984;SDS011;67177;47.240;-1.546;2023-09-30T07:25:13;3.60;;;0.90;;
77984;SDS011;67177;47.240;-1.546;2023-09-30T07:27:41;3.42;;;0.80;;
77984;SDS011;67177;47.240;-1.546;2023-09-30T07:30:11;3.20;;;0.80;;
77984;SDS011;67177;47.240;-1.546;2023-09-30T07:32:40;3.40;;;1.07;;
77984;SDS011;67177;47.240;-1.546;2023-09-30T07:35:07;3.97;;;1.10;;
77984;SDS011;67177;47.240;-1.546;2023-09-30T07:37:33;4.68;;;1.10;;
77984;SDS011;67177;47.240;-1.546;2023-09-30T07:39:58;4.10;;;1.27;;
77984;SDS011;67177;47.240;-1.546;2023-09-30T07:42:24;5.25;;;1.50;;
77984;SDS011;67177;47.240;-1.546;2023-09-30T07:44:50;6.15;;;1.60;;
77984;SDS011;67177;47.240;-1.546;2023-09-30T07:47:16;5.80;;;1.70;;
77984;SDS011;67177;47.240;-1.546;2023-09-30T07:49:42;5.68;;;1.98;;
77984;SDS011;67177;47.240;-1.546;2023-09-30T07:52:08;7.28;;;2.40;;
77984;SDS011;67177;47.240;-1.546;2023-09-30T07:54:34;6.60;;;2.35;;
77984;SDS011;67177;47.240;-1.546;2023-09-30T07:56:59;8.40;;;2.70;;
77984;SDS011;67177;47.240;-1.546;2023-09-30T07:59:25;7.47;;;2.33;;
77984;SDS011;67177;47.240;-1.546;2023-09-30T08:01:52;7.10;;;2.20;;
77984;SDS011;67177;47.240;-1.546;2023-09-30T08:04:18;6.97;;;2.13;;
77984;SDS011;67177;47.240;-1.546;2023-09-30T08:06:44;6.22;;;2.00;;
77984;SDS011;67177;47.240;-1.546;2023-09-30T08:09:09;6.63;;;2.30;;
77984;SDS011;67177;47.240;-1.546;2023-09-30T08:11:38;7.35;;;2.42;;
77984;SDS011;67177;47.240;-1.546;2023-09-30T08:14:04;6.43;;;2.10;;
77984;SDS011;67177;47.240;-1.546;2023-09-30T08:16:34;5.55;;;1.92;;
77984;SDS011;67177;47.240;-1.546;2023-09-30T08:19:02;7.05;;;2.38;;
77984;SDS011;67177;47.240;-1.546;2023-09-30T08:21:28;7.10;;;2.23;;
77984;SDS011;67177;47.240;-1.546;2023-09-30T08:23:55;6.03;;;2.30;;
77984;SDS011;67177;47.240;-1.546;2023-09-30T08:26:21;6.78;;;1.98;;
77984;SDS011;67177;47.240;-1.546;2023-09-30T08:28:47;5.65;;;1.83;;
77984;SDS011;67177;47.240;-1.546;2023-09-30T08:31:13;6.17;;;2.00;;
77984;SDS011;67177;47.240;-1.546;2023-09-30T08:33:39;4.70;;;1.50;;
77984;SDS011;67177;47.240;-1.546;2023-09-30T08:36:06;4.50;;;1.30;;
77984;SDS011;67177;47.240;-1.546;2023-09-30T08:38:36;5.17;;;1.60;;
77984;SDS011;67177;47.240;-1.546;2023-09-30T08:41:02;4.95;;;1.70;;
77984;SDS011;67177;47.240;-1.546;2023-09-30T08:43:29;5.10;;;1.67;;
77984;SDS011;67177;47.240;-1.546;2023-09-30T08:45:58;5.53;;;1.70;;
77984;SDS011;67177;47.240;-1.546;2023-09-30T08:48:27;5.20;;;1.60;;
77984;SDS011;67177;47.240;-1.546;2023-09-30T08:50:55;5.70;;;1.50;;
77984;SDS011;67177;47.240;-1.546;2023-09-30T08:53:22;4.55;;;1.60;;
77984;SDS011;67177;47.240;-1.546;2023-09-30T08:55:50;5.20;;;1.40;;
77984;SDS011;67177;47.240;-1.546;2023-09-30T08:58:19;4.88;;;1.50;;
77984;SDS011;67177;47.240;-1.546;2023-09-30T09:00:48;6.63;;;1.80;;
77984;SDS011;67177;47.240;-1.546;2023-09-30T09:03:15;4.70;;;1.40;;
77984;SDS011;67177;47.240;-1.546;2023-09-30T09:05:41;4.43;;;1.30;;
77984;SDS011;67177;47.240;-1.546;2023-09-30T09:08:07;6.07;;;1.38;;
77984;SDS011;67177;47.240;-1.546;2023-09-30T09:10:34;4.35;;;1.30;;
77984;SDS011;67177;47.240;-1.546;2023-09-30T09:13:00;5.38;;;1.65;;
77984;SDS011;67177;47.240;-1.546;2023-09-30T09:15:26;10.87;;;3.73;;
77984;SDS011;67177;47.240;-1.546;2023-09-30T09:17:56;9.80;;;3.88;;
77984;SDS011;67177;47.240;-1.546;2023-09-30T09:20:23;9.75;;;3.30;;
77984;SDS011;67177;47.240;-1.546;2023-09-30T09:22:54;8.68;;;3.70;;
77984;SDS011;67177;47.240;-1.546;2023-09-30T09:25:21;9.17;;;3.43;;
77984;SDS011;67177;47.240;-1.546;2023-09-30T09:27:53;7.32;;;2.50;;
77984;SDS011;67177;47.240;-1.546;2023-09-30T09:30:23;7.93;;;2.78;;
77984;SDS011;67177;47.240;-1.546;2023-09-30T09:32:59;7.45;;;2.70;;
77984;SDS011;67177;47.240;-1.546;2023-09-30T09:35:26;8.93;;;3.03;;
77984;SDS011;67177;47.240;-1.546;2023-09-30T09:38:06;9.50;;;3.20;;
77984;SDS011;67177;47.240;-1.546;2023-09-30T09:40:33;9.73;;;3.13;;
77984;SDS011;67177;47.240;-1.546;2023-09-30T09:43:00;8.30;;;3.00;;
77984;SDS011;67177;47.240;-1.546;2023-09-30T09:45:30;8.15;;;2.60;;
77984;SDS011;67177;47.240;-1.546;2023-09-30T09:47:59;7.90;;;2.65;;
77984;SDS011;67177;47.240;-1.546;2023-09-30T09:50:26;8.57;;;2.73;;
77984;SDS011;67177;47.240;-1.546;2023-09-30T09:52:52;8.55;;;2.60;;
77984;SDS011;67177;47.240;-1.546;2023-09-30T09:55:24;7.30;;;2.50;;
77984;SDS011;67177;47.240;-1.546;2023-09-30T09:57:51;9.07;;;2.65;;
77984;SDS011;67177;47.240;-1.546;2023-09-30T10:00:21;6.43;;;2.13;;
77984;SDS011;67177;47.240;-1.546;2023-09-30T10:02:49;6.73;;;2.23;;
77984;SDS011;67177;47.240;-1.546;2023-09-30T10:05:16;7.75;;;2.20;;
77984;SDS011;67177;47.240;-1.546;2023-09-30T10:07:53;6.63;;;2.38;;
77984;SDS011;67177;47.240;-1.546;2023-09-30T10:10:22;7.07;;;2.15;;
77984;SDS011;67177;47.240;-1.546;2023-09-30T10:12:50;8.25;;;2.50;;
77984;SDS011;67177;47.240;-1.546;2023-09-30T10:20:28;11.23;;;3.67;;
77984;SDS011;67177;47.240;-1.546;2023-09-30T10:25:47;12.07;;;4.23;;
77984;SDS011;67177;47.240;-1.546;2023-09-30T10:36:32;9.38;;;2.92;;
77984;SDS011;67177;47.240;-1.546;2023-09-30T10:39:00;10.50;;;3.20;;
77984;SDS011;67177;47.240;-1.546;2023-09-30T10:47:34;9.20;;;3.35;;
77984;SDS011;67177;47.240;-1.546;2023-09-30T10:49:46;8.00;;;2.83;;
77984;SDS011;67177;47.240;-1.546;2023-09-30T10:52:12;8.17;;;3.03;;
77984;SDS011;67177;47.240;-1.546;2023-09-30T10:54:50;8.45;;;3.00;;
77984;SDS011;67177;47.240;-1.546;2023-09-30T10:57:37;7.90;;;2.95;;
77984;SDS011;67177;47.240;-1.546;2023-09-30T11:00:12;10.20;;;3.50;;
77984;SDS011;67177;47.240;-1.546;2023-09-30T11:02:48;10.38;;;3.63;;
77984;SDS011;67177;47.240;-1.546;2023-09-30T11:05:14;10.38;;;3.72;;
77984;SDS011;67177;47.240;-1.546;2023-09-30T11:07:40;9.95;;;3.53;;
77984;SDS011;67177;47.240;-1.546;2023-09-30T11:10:08;9.60;;;3.30;;
77984;SDS011;67177;47.240;-1.546;2023-09-30T11:12:34;9.13;;;3.33;;
77984;SDS011;67177;47.240;-1.546;2023-09-30T11:15:01;10.60;;;4.38;;
77984;SDS011;67177;47.240;-1.546;2023-09-30T11:17:28;11.07;;;3.50;;
77984;SDS011;67177;47.240;-1.546;2023-09-30T11:19:54;9.88;;;3.40;;
77984;SDS011;67177;47.240;-1.546;2023-09-30T11:22:19;10.23;;;3.97;;
77984;SDS011;67177;47.240;-1.546;2023-09-30T11:24:46;11.77;;;4.00;;
77984;SDS011;67177;47.240;-1.546;2023-09-30T11:27:12;11.57;;;4.18;;
77984;SDS011;67177;47.240;-1.546;2023-09-30T11:29:47;9.43;;;3.50;;
77984;SDS011;67177;47.240;-1.546;2023-09-30T11:32:24;10.05;;;3.72;;
77984;SDS011;67177;47.240;-1.546;2023-09-30T11:34:51;11.50;;;3.60;;
77984;SDS011;67177;47.240;-1.546;2023-09-30T11:37:18;9.73;;;3.63;;
77984;SDS011;67177;47.240;-1.546;2023-09-30T11:39:43;9.10;;;3.50;;
77984;SDS011;67177;47.240;-1.546;2023-09-30T11:42:16;9.38;;;3.35;;
77984;SDS011;67177;47.240;-1.546;2023-09-30T11:44:44;8.07;;;2.85;;
77984;SDS011;67177;47.240;-1.546;2023-09-30T11:47:12;9.25;;;3.13;;
77984;SDS011;67177;47.240;-1.546;2023-09-30T11:49:40;10.40;;;3.80;;
77984;SDS011;67177;47.240;-1.546;2023-09-30T11:52:12;10.88;;;3.40;;
77984;SDS011;67177;47.240;-1.546;2023-09-30T11:54:40;11.77;;;4.72;;
77984;SDS011;67177;47.240;-1.546;2023-09-30T11:57:11;12.38;;;4.20;;
77984;SDS011;67177;47.240;-1.546;2023-09-30T11:59:40;9.93;;;4.07;;
77984;SDS011;67177;47.240;-1.546;2023-09-30T12:02:07;11.30;;;4.13;;
77984;SDS011;67177;47.240;-1.546;2023-09-30T12:04:34;12.15;;;4.68;;
77984;SDS011;67177;47.240;-1.546;2023-09-30T12:07:00;14.20;;;5.10;;
77984;SDS011;67177;47.240;-1.546;2023-09-30T12:09:26;11.88;;;4.22;;
77984;SDS011;67177;47.240;-1.546;2023-09-30T12:11:53;11.27;;;4.25;;
77984;SDS011;67177;47.240;-1.546;2023-09-30T12:14:20;10.73;;;3.57;;
77984;SDS011;67177;47.240;-1.546;2023-09-30T12:16:47;7.70;;;3.08;;
77984;SDS011;67177;47.240;-1.546;2023-09-30T12:19:13;8.43;;;3.33;;
77984;SDS011;67177;47.240;-1.546;2023-09-30T12:21:41;10.27;;;3.10;;
77984;SDS011;67177;47.240;-1.546;2023-09-30T12:24:07;9.07;;;3.17;;
77984;SDS011;67177;47.240;-1.546;2023-09-30T12:26:34;8.13;;;2.70;;
77984;SDS011;67177;47.240;-1.546;2023-09-30T12:29:06;8.68;;;2.83;;
77984;SDS011;67177;47.240;-1.546;2023-09-30T12:31:34;9.02;;;2.90;;
77984;SDS011;67177;47.240;-1.546;2023-09-30T12:33:59;8.27;;;2.70;;
77984;SDS011;67177;47.240;-1.546;2023-09-30T12:36:25;8.87;;;2.97;;
77984;SDS011;67177;47.240;-1.546;2023-09-30T12:38:51;9.43;;;3.28;;
77984;SDS011;67177;47.240;-1.546;2023-09-30T12:41:16;8.40;;;3.22;;
77984;SDS011;67177;47.240;-1.546;2023-09-30T12:43:44;7.18;;;2.72;;
77984;SDS011;67177;47.240;-1.546;2023-09-30T12:46:10;7.32;;;2.70;;
77984;SDS011;67177;47.240;-1.546;2023-09-30T12:48:38;7.50;;;2.50;;
77984;SDS011;67177;47.240;-1.546;2023-09-30T12:51:05;8.43;;;2.83;;
77984;SDS011;67177;47.240;-1.546;2023-09-30T12:53:32;10.80;;;3.45;;
77984;SDS011;67177;47.240;-1.546;2023-09-30T12:55:58;11.40;;;4.20;;
77984;SDS011;67177;47.240;-1.546;2023-09-30T12:58:25;10.02;;;3.67;;
77984;SDS011;67177;47.240;-1.546;2023-09-30T13:00:53;9.70;;;3.23;;
77984;SDS011;67177;47.240;-1.546;2023-09-30T13:03:20;9.82;;;3.35;;
77984;SDS011;67177;47.240;-1.546;2023-09-30T13:05:45;8.95;;;3.20;;
77984;SDS011;67177;47.240;-1.546;2023-09-30T13:08:11;7.63;;;2.90;;
77984;SDS011;67177;47.240;-1.546;2023-09-30T13:10:37;8.00;;;2.92;;
77984;SDS011;67177;47.240;-1.546;2023-09-30T13:13:03;9.33;;;3.17;;
77984;SDS011;67177;47.240;-1.546;2023-09-30T13:15:29;8.95;;;3.13;;
77984;SDS011;67177;47.240;-1.546;2023-09-30T13:17:54;8.90;;;3.03;;
77984;SDS011;67177;47.240;-1.546;2023-09-30T13:20:20;8.25;;;3.05;;
77984;SDS011;67177;47.240;-1.546;2023-09-30T13:22:46;8.07;;;2.80;;
77984;SDS011;67177;47.240;-1.546;2023-09-30T13:25:12;8.40;;;2.58;;
77984;SDS011;67177;47.240;-1.546;2023-09-30T13:27:38;9.07;;;3.03;;
77984;SDS011;67177;47.240;-1.546;2023-09-30T13:30:05;8.52;;;3.15;;
77984;SDS011;67177;47.240;-1.546;2023-09-30T13:32:33;8.65;;;3.30;;
77984;SDS011;67177;47.240;-1.546;2023-09-30T13:35:01;8.45;;;3.10;;
77984;SDS011;67177;47.240;-1.546;2023-09-30T13:37:31;8.32;;;3.03;;
77984;SDS011;67177;47.240;-1.546;2023-09-30T13:39:58;8.30;;;2.83;;
77984;SDS011;67177;47.240;-1.546;2023-09-30T13:42:25;9.38;;;3.35;;
77984;SDS011;67177;47.240;-1.546;2023-09-30T13:44:50;9.07;;;3.30;;
77984;SDS011;67177;47.240;-1.546;2023-09-30T13:47:16;7.93;;;3.17;;
77984;SDS011;67177;47.240;-1.546;2023-09-30T13:49:42;11.32;;;3.80;;
77984;SDS011;67177;47.240;-1.546;2023-09-30T13:52:07;8.70;;;3.17;;
77984;SDS011;67177;47.240;-1.546;2023-09-30T13:54:33;7.47;;;2.80;;
77984;SDS011;67177;47.240;-1.546;2023-09-30T13:56:59;8.43;;;3.10;;
77984;SDS011;67177;47.240;-1.546;2023-09-30T13:59:24;9.57;;;3.40;;
77984;SDS011;67177;47.240;-1.546;2023-09-30T14:01:50;7.88;;;2.90;;
77984;SDS011;67177;47.240;-1.546;2023-09-30T14:04:16;7.97;;;2.90;;
77984;SDS011;67177;47.240;-1.546;2023-09-30T14:06:42;7.55;;;2.72;;
77984;SDS011;67177;47.240;-1.546;2023-09-30T14:09:08;6.35;;;2.28;;
77984;SDS011;67177;47.240;-1.546;2023-09-30T14:11:40;6.33;;;2.13;;
77984;SDS011;67177;47.240;-1.546;2023-09-30T14:14:06;5.85;;;1.90;;
77984;SDS011;67177;47.240;-1.546;2023-09-30T14:16:34;6.40;;;2.10;;
77984;SDS011;67177;47.240;-1.546;2023-09-30T14:19:03;7.53;;;2.38;;
77984;SDS011;67177;47.240;-1.546;2023-09-30T14:21:29;7.87;;;2.70;;
77984;SDS011;67177;47.240;-1.546;2023-09-30T14:23:57;7.35;;;2.40;;
77984;SDS011;67177;47.240;-1.546;2023-09-30T14:26:23;6.15;;;1.95;;
77984;SDS011;67177;47.240;-1.546;2023-09-30T14:28:48;6.10;;;2.10;;
77984;SDS011;67177;47.240;-1.546;2023-09-30T14:31:14;6.20;;;1.98;;
77984;SDS011;67177;47.240;-1.546;2023-09-30T14:33:39;8.55;;;3.22;;
77984;SDS011;67177;47.240;-1.546;2023-09-30T14:36:05;9.63;;;3.40;;
77984;SDS011;67177;47.240;-1.546;2023-09-30T14:38:31;10.00;;;3.33;;
77984;SDS011;67177;47.240;-1.546;2023-09-30T14:40:57;8.95;;;3.33;;
77984;SDS011;67177;47.240;-1.546;2023-09-30T14:43:23;8.70;;;2.60;;
77984;SDS011;67177;47.240;-1.546;2023-09-30T14:45:49;6.22;;;2.25;;
77984;SDS011;67177;47.240;-1.546;2023-09-30T14:48:14;6.03;;;2.20;;
77984;SDS011;67177;47.240;-1.546;2023-09-30T14:50:52;9.60;;;2.90;;
77984;SDS011;67177;47.240;-1.546;2023-09-30T14:53:18;7.35;;;2.70;;
77984;SDS011;67177;47.240;-1.546;2023-09-30T14:55:44;7.10;;;2.67;;